createdAt,value
2018-05-10T00:02:00.284Z,92.30
2018-05-10T00:04:27.748Z,92.30
2018-05-10T00:06:55.205Z,92.30
2018-05-10T00:09:22.673Z,92.10
2018-05-10T00:11:50.239Z,92.10
2018-05-10T00:14:17.700Z,92.20
2018-05-10T00:16:45.176Z,92.30
2018-05-10T00:19:13.501Z,92.40
2018-05-10T00:21:40.980Z,92.40
2018-05-10T00:24:08.453Z,92.30
2018-05-10T00:26:36.020Z,92.60
2018-05-10T00:29:03.485Z,92.80
2018-05-10T00:31:30.948Z,92.70
2018-05-10T00:33:58.436Z,92.80
2018-05-10T00:36:26.009Z,93.00
2018-05-10T00:38:53.469Z,93.00
2018-05-10T00:41:20.968Z,93.10
2018-05-10T00:43:48.456Z,93.30
2018-05-10T00:46:16.680Z,93.40
2018-05-10T00:48:44.175Z,93.30
2018-05-10T00:51:11.737Z,93.40
2018-05-10T00:53:39.216Z,93.30
2018-05-10T00:56:06.792Z,93.20
2018-05-10T00:58:34.248Z,93.10
2018-05-10T01:01:01.713Z,93.20
2018-05-10T01:03:29.184Z,93.10
2018-05-10T01:05:56.660Z,93.20
2018-05-10T01:08:24.140Z,93.10
2018-05-10T01:10:51.606Z,93.00
2018-05-10T01:13:19.090Z,93.10
2018-05-10T01:15:46.548Z,93.00
2018-05-10T01:18:14.116Z,93.10
2018-05-10T01:20:41.573Z,93.10
2018-05-10T01:23:09.036Z,93.20
2018-05-10T01:25:36.488Z,93.20
2018-05-10T01:28:03.955Z,93.30
2018-05-10T01:30:31.415Z,93.70
2018-05-10T01:32:59.714Z,93.50
2018-05-10T01:35:39.836Z,93.80
2018-05-10T01:38:07.288Z,93.80
2018-05-10T01:40:34.761Z,94.10
2018-05-10T01:43:02.215Z,94.30
2018-05-10T01:45:29.680Z,94.50
2018-05-10T01:47:57.155Z,94.60
2018-05-10T01:50:24.616Z,94.90
2018-05-10T01:52:52.080Z,95.00
2018-05-10T01:55:20.015Z,95.20
2018-05-10T01:57:47.475Z,95.20
2018-05-10T02:00:14.920Z,95.40
2018-05-10T02:02:42.388Z,95.40
2018-05-10T02:05:09.869Z,95.50
2018-05-10T02:07:37.332Z,95.50
2018-05-10T02:10:04.792Z,95.50
2018-05-10T02:12:32.260Z,95.60
2018-05-10T02:14:59.745Z,95.70
2018-05-10T02:17:27.324Z,95.70
2018-05-10T02:19:54.802Z,95.70
2018-05-10T02:22:22.268Z,95.60
2018-05-10T02:24:49.726Z,95.60
2018-05-10T02:27:17.200Z,95.70
2018-05-10T02:29:44.752Z,95.70
2018-05-10T02:32:12.184Z,95.80
2018-05-10T02:34:40.416Z,95.80
2018-05-10T02:37:07.873Z,95.80
2018-05-10T02:39:35.349Z,95.70
2018-05-10T02:42:02.813Z,95.80
2018-05-10T02:44:30.285Z,95.80
2018-05-10T02:46:57.843Z,95.80
2018-05-10T02:49:25.352Z,95.70
2018-05-10T02:51:52.805Z,95.70
2018-05-10T02:54:20.272Z,95.90
2018-05-10T02:56:47.756Z,95.70
2018-05-10T02:59:15.212Z,95.80
2018-05-10T03:01:42.768Z,95.80
2018-05-10T03:04:10.227Z,95.80
2018-05-10T03:06:38.456Z,95.70
2018-05-10T03:09:05.999Z,95.70
2018-05-10T03:11:33.409Z,95.70
2018-05-10T03:14:00.865Z,95.70
2018-05-10T03:16:28.334Z,95.80
2018-05-10T03:18:55.823Z,95.80
2018-05-10T03:21:23.292Z,95.80
2018-05-10T03:23:50.745Z,95.60
2018-05-10T03:26:18.220Z,95.60
2018-05-10T03:28:45.668Z,95.50
2018-05-10T03:31:13.160Z,95.50
2018-05-10T03:33:40.628Z,95.50
2018-05-10T03:36:08.082Z,95.50
2018-05-10T03:38:35.556Z,95.50
2018-05-10T03:41:03.011Z,95.50
2018-05-10T03:43:30.485Z,95.50
2018-05-10T03:45:58.456Z,95.60
2018-05-10T03:48:25.948Z,95.60
2018-05-10T03:50:53.400Z,95.40
2018-05-10T03:53:20.862Z,95.40
2018-05-10T03:55:48.319Z,95.30
2018-05-10T03:58:16.655Z,95.30
2018-05-10T04:00:44.124Z,95.30
2018-05-10T04:06:24.323Z,95.20
2018-05-10T04:09:04.096Z,95.30
2018-05-10T04:11:31.556Z,95.30
2018-05-10T04:13:59.013Z,95.40
2018-05-10T04:16:26.508Z,95.30
2018-05-10T04:18:53.982Z,95.40
2018-05-10T04:21:21.449Z,95.40
2018-05-10T04:23:48.910Z,95.40
2018-05-10T04:26:16.374Z,95.40
2018-05-10T04:28:43.908Z,95.40
2018-05-10T04:31:12.128Z,95.40
2018-05-10T04:33:39.604Z,95.40
2018-05-10T04:36:07.065Z,95.30
2018-05-10T04:38:34.516Z,95.40
2018-05-10T04:41:01.990Z,95.30
2018-05-10T04:43:29.443Z,95.40
2018-05-10T07:48:23.852Z,88.60
2018-05-10T07:50:51.309Z,86.30
2018-05-10T07:53:18.778Z,85.40
2018-05-10T07:55:46.235Z,83.80
2018-05-10T07:58:13.684Z,83.00
2018-05-10T08:00:41.164Z,80.90
2018-05-10T08:03:08.643Z,78.70
2018-05-10T08:05:36.152Z,77.50
2018-05-10T08:08:04.392Z,77.30
2018-05-10T08:10:31.870Z,77.20
2018-05-10T08:12:59.332Z,77.50
2018-05-10T08:24:11.454Z,76.60
2018-05-10T08:26:38.948Z,76.60
2018-05-10T08:29:06.568Z,76.10
2018-05-10T08:56:21.375Z,78.30
2018-05-10T08:58:49.009Z,78.30
2018-05-10T09:01:16.475Z,77.80
2018-05-10T09:03:43.982Z,77.90
2018-05-10T09:06:11.518Z,75.90
2018-05-10T09:08:38.972Z,73.40
2018-05-10T09:11:07.204Z,72.90
2018-05-10T09:13:34.692Z,72.80
2018-05-10T09:16:03.193Z,72.60
2018-05-10T09:18:30.644Z,73.50
2018-05-10T09:21:01.853Z,75.50
2018-05-10T09:23:30.118Z,72.90
2018-05-10T09:25:57.703Z,72.60
2018-05-10T09:28:25.136Z,74.20
2018-05-10T09:30:52.701Z,74.30
2018-05-10T09:33:20.176Z,73.10
2018-05-10T09:35:47.646Z,71.10
2018-05-10T09:38:15.113Z,69.80
2018-05-10T09:40:42.560Z,68.40
2018-05-10T09:43:10.401Z,69.40
2018-05-10T09:45:37.889Z,69.30
2018-05-10T09:48:05.373Z,69.10
2018-05-10T09:50:32.888Z,69.90
2018-05-10T09:53:00.355Z,70.10
2018-05-10T09:55:27.913Z,71.90
2018-05-10T09:57:55.449Z,72.60
2018-05-10T10:00:29.508Z,72.10
2018-05-10T10:02:56.964Z,72.00
2018-05-10T10:05:24.422Z,70.90
2018-05-10T10:07:51.879Z,69.90
2018-05-10T10:10:19.336Z,69.80
2018-05-10T10:12:47.552Z,69.50
2018-05-10T10:15:15.052Z,69.40
2018-05-10T10:17:42.538Z,69.80
2018-05-10T10:20:09.972Z,70.20
2018-05-10T10:22:37.433Z,71.20
2018-05-10T10:25:04.901Z,73.40
2018-05-10T10:27:32.359Z,74.60
2018-05-10T10:29:59.869Z,73.30
2018-05-10T10:32:27.366Z,69.40
2018-05-10T10:34:55.034Z,70.00
2018-05-10T10:37:22.485Z,69.50
2018-05-10T10:39:49.952Z,69.00
2018-05-10T10:42:17.524Z,70.40
2018-05-10T10:44:44.974Z,68.50
2018-05-10T10:47:12.441Z,69.10
2018-05-10T10:49:39.903Z,69.20
2018-05-10T10:52:07.373Z,71.00
2018-05-10T10:54:34.842Z,71.90
2018-05-10T10:57:02.316Z,71.40
2018-05-10T10:59:29.760Z,71.60
2018-05-10T11:01:58.009Z,76.10
2018-05-10T11:04:25.506Z,76.20
2018-05-10T11:06:52.941Z,75.40
2018-05-10T11:09:20.413Z,75.60
2018-05-10T11:11:47.944Z,76.80
2018-05-10T11:14:15.452Z,78.00
2018-05-10T11:16:42.902Z,79.00
2018-05-10T11:19:10.377Z,79.10
2018-05-10T11:21:37.928Z,79.20
2018-05-10T11:24:05.409Z,80.10
2018-05-10T11:26:32.865Z,81.50
2018-05-10T11:29:00.333Z,83.30
2018-05-10T11:31:27.785Z,83.90
2018-05-10T11:33:56.047Z,86.00
2018-05-10T11:36:23.508Z,86.00
2018-05-10T11:38:50.971Z,86.30
2018-05-10T11:41:18.533Z,87.00
2018-05-10T11:43:46.076Z,87.00
2018-05-10T11:46:13.584Z,87.10
2018-05-10T11:48:41.071Z,87.40
2018-05-10T11:51:08.649Z,87.50
2018-05-10T11:53:36.111Z,88.00
2018-05-10T11:56:03.693Z,88.60
2018-05-10T11:58:31.142Z,88.10
2018-05-10T12:00:58.614Z,88.30
2018-05-10T12:03:26.069Z,88.50
2018-05-10T12:05:53.524Z,88.50
2018-05-10T12:08:20.988Z,88.80
2018-05-10T12:10:48.485Z,89.60
2018-05-10T12:13:15.952Z,90.20
2018-05-10T12:15:43.417Z,90.30
2018-05-10T12:18:10.894Z,90.10
2018-05-10T12:20:38.360Z,90.30
2018-05-10T12:23:05.858Z,90.00
2018-05-10T12:25:33.355Z,89.80
2018-05-10T12:28:01.180Z,89.30
2018-05-10T12:30:28.688Z,90.20
2018-05-10T12:32:56.101Z,90.00
2018-05-10T12:35:23.593Z,90.10
2018-05-10T12:37:51.066Z,90.40
2018-05-10T12:40:18.632Z,90.50
2018-05-10T12:42:46.110Z,90.50
2018-05-10T12:45:13.689Z,90.70
2018-05-10T12:47:41.150Z,91.00
2018-05-10T12:50:08.636Z,90.90
2018-05-10T12:52:36.108Z,91.10
2018-05-10T12:55:03.604Z,91.30
2018-05-10T12:57:31.830Z,91.70
2018-05-10T12:59:59.312Z,91.70
2018-05-10T13:02:26.794Z,92.00
2018-05-10T13:04:54.249Z,92.60
2018-05-10T13:07:21.717Z,92.90
2018-05-10T13:09:49.169Z,92.50
2018-05-10T13:12:16.680Z,92.70
2018-05-10T13:14:44.154Z,92.40
2018-05-10T13:17:11.630Z,92.10
2018-05-10T13:19:39.117Z,91.90
2018-05-10T13:22:07.360Z,92.10
2018-05-10T13:24:34.834Z,91.70
2018-05-10T13:27:02.297Z,91.40
2018-05-10T13:29:29.749Z,91.40
2018-05-10T13:31:57.314Z,91.20
2018-05-10T13:34:24.885Z,91.00
2018-05-10T13:36:52.338Z,91.00
2018-05-10T13:39:20.577Z,90.60
2018-05-10T13:41:48.036Z,90.60
2018-05-10T13:44:15.505Z,90.50
2018-05-10T13:46:42.974Z,90.60
2018-05-10T13:49:10.464Z,90.50
2018-05-10T13:51:37.931Z,90.60
2018-05-10T13:54:05.437Z,90.60
2018-05-10T13:56:33.669Z,90.30
2018-05-10T13:59:01.142Z,90.50
2018-05-10T14:01:28.632Z,90.10
2018-05-10T14:03:56.204Z,90.20
2018-05-10T14:06:23.676Z,90.40
2018-05-10T14:08:51.129Z,90.70
2018-05-10T14:11:18.601Z,91.00
2018-05-10T14:13:46.084Z,90.90
2018-05-10T14:16:13.553Z,91.20
2018-05-10T14:18:41.024Z,91.10
2018-05-10T14:21:08.493Z,91.10
2018-05-10T14:23:35.961Z,90.90
2018-05-10T14:26:03.530Z,90.80
2018-05-10T14:28:31.005Z,90.70
2018-05-10T14:30:58.479Z,90.50
2018-05-10T14:33:25.929Z,90.90
2018-05-10T14:35:53.393Z,90.70
2018-05-10T14:38:20.850Z,90.80
2018-05-10T14:40:48.317Z,90.80
2018-05-10T14:43:15.801Z,91.00
2018-05-10T14:45:43.268Z,90.90
2018-05-10T14:48:10.732Z,91.10
2018-05-10T14:50:38.198Z,91.20
2018-05-10T14:53:05.696Z,91.10
2018-05-10T14:55:33.168Z,90.90
2018-05-10T14:58:00.624Z,91.10
2018-05-10T15:00:28.108Z,90.70
2018-05-10T15:02:55.560Z,90.70
2018-05-10T15:05:23.016Z,90.80
2018-05-10T15:07:50.530Z,90.70
2018-05-10T15:10:18.000Z,89.60
2018-05-10T15:12:45.472Z,88.60
2018-05-10T15:15:12.932Z,85.50
2018-05-10T15:17:40.414Z,83.70
2018-05-10T15:20:07.969Z,82.30
2018-05-10T15:22:35.542Z,80.70
2018-05-10T15:25:03.008Z,78.60
2018-05-10T15:27:30.476Z,78.90
2018-05-10T15:29:57.952Z,78.70
2018-05-10T15:32:25.525Z,77.40
2018-05-10T15:34:52.988Z,77.50
2018-05-10T15:37:20.459Z,77.50
2018-05-10T15:39:47.913Z,76.80
2018-05-10T15:42:15.393Z,78.10
2018-05-10T15:44:42.869Z,79.60
2018-05-10T15:47:10.338Z,79.40
2018-05-10T15:49:37.836Z,79.00
2018-05-10T15:52:05.284Z,79.20
2018-05-10T15:54:32.748Z,79.40
2018-05-10T15:57:00.240Z,78.70
2018-05-10T15:59:29.222Z,76.50
2018-05-10T16:01:56.682Z,77.20
2018-05-10T16:04:24.233Z,75.90
2018-05-10T16:06:51.697Z,76.00
2018-05-10T16:09:19.270Z,76.10
2018-05-10T16:11:46.712Z,77.40
2018-05-10T16:14:14.961Z,78.10
2018-05-10T16:16:42.440Z,77.90
2018-05-10T16:19:09.897Z,78.00
2018-05-10T16:21:37.357Z,77.40
2018-05-10T16:24:04.828Z,77.30
2018-05-10T16:26:32.337Z,76.40
2018-05-10T16:29:00.093Z,75.70
2018-05-10T16:31:27.553Z,75.20
2018-05-10T16:33:55.010Z,74.90
2018-05-10T16:36:22.538Z,75.00
2018-05-10T16:38:49.980Z,73.90
2018-05-10T16:41:17.444Z,74.10
2018-05-10T16:43:44.897Z,73.60
2018-05-10T16:46:12.364Z,73.70
2018-05-10T16:48:39.818Z,73.70
2018-05-10T16:51:07.318Z,72.80
2018-05-10T16:53:34.793Z,72.80
2018-05-10T16:56:02.356Z,73.00
2018-05-10T16:58:29.841Z,74.10
2018-05-10T17:00:57.328Z,73.60
2018-05-10T17:03:25.546Z,73.70
2018-05-10T17:05:53.021Z,73.70
2018-05-10T17:08:20.485Z,75.00
2018-05-10T17:10:47.992Z,73.60
2018-05-10T17:13:15.461Z,73.90
2018-05-10T17:15:42.937Z,74.70
2018-05-10T17:18:10.404Z,74.60
2018-05-10T17:20:37.850Z,73.80
2018-05-10T17:23:05.309Z,73.80
2018-05-10T17:25:32.816Z,73.40
2018-05-10T17:28:00.288Z,73.60
2018-05-10T17:30:27.766Z,73.60
2018-05-10T17:32:55.220Z,73.40
2018-05-10T17:35:22.715Z,73.80
2018-05-10T17:37:51.874Z,72.00
2018-05-10T17:40:19.333Z,71.90
2018-05-10T17:42:46.784Z,72.20
2018-05-10T17:45:15.033Z,72.90
2018-05-10T17:47:42.497Z,72.70
2018-05-10T17:50:09.961Z,73.70
2018-05-10T17:52:37.413Z,73.20
2018-05-10T17:55:04.889Z,73.10
2018-05-10T17:57:32.332Z,72.90
2018-05-10T18:00:00.633Z,73.20
2018-05-10T18:02:28.905Z,73.60
2018-05-10T18:04:57.274Z,73.60
2018-05-10T18:07:25.536Z,73.60
2018-05-10T18:09:53.073Z,73.50
2018-05-10T18:12:20.527Z,74.00
2018-05-10T18:14:48.735Z,74.40
2018-05-10T18:17:16.952Z,74.40
2018-05-10T18:19:44.421Z,74.00
2018-05-10T18:22:11.996Z,74.00
2018-05-10T18:24:39.447Z,73.30
2018-05-10T18:27:06.932Z,73.00
2018-05-10T18:29:34.474Z,73.30
2018-05-10T18:32:02.099Z,73.00
2018-05-10T18:34:31.183Z,73.30
2018-05-10T18:36:58.761Z,73.30
2018-05-10T18:39:26.351Z,73.30
2018-05-10T18:41:54.644Z,74.90
2018-05-10T18:44:22.165Z,74.80
2018-05-10T18:46:49.649Z,75.10
2018-05-10T18:49:17.143Z,75.90
2018-05-10T18:51:44.613Z,75.80
2018-05-10T18:54:12.068Z,76.20
2018-05-10T18:56:40.929Z,76.60
2018-05-10T18:59:09.176Z,76.80
2018-05-10T19:01:36.709Z,76.70
2018-05-10T19:04:04.921Z,76.80
2018-05-10T19:06:32.736Z,76.80
2018-05-10T19:09:01.939Z,77.90
2018-05-10T19:11:29.583Z,77.90
2018-05-10T19:13:57.480Z,78.20
2018-05-10T19:16:26.161Z,79.60
2018-05-10T19:18:54.342Z,79.50
2018-05-10T19:21:21.971Z,79.40
2018-05-10T19:23:50.646Z,79.70
2018-05-10T19:26:19.374Z,79.80
2018-05-10T19:28:46.813Z,80.70
2018-05-10T19:31:14.266Z,80.60
2018-05-10T19:33:41.725Z,81.30
2018-05-10T19:36:09.957Z,81.60
2018-05-10T19:38:37.412Z,82.20
2018-05-10T19:41:04.861Z,81.30
2018-05-10T19:43:32.354Z,82.10
2018-05-10T19:45:59.857Z,82.20
2018-05-10T19:48:28.089Z,82.30
2018-05-10T19:50:55.578Z,82.30
2018-05-10T19:53:23.056Z,82.90
2018-05-10T19:55:50.509Z,83.40
2018-05-10T19:58:17.964Z,83.10
2018-05-10T20:00:45.425Z,83.50
2018-05-10T20:03:12.876Z,83.80
2018-05-10T20:05:40.336Z,84.10
2018-05-10T20:08:07.852Z,84.50
2018-05-10T20:10:35.311Z,84.60
2018-05-10T20:13:02.764Z,85.10
2018-05-10T20:15:30.281Z,85.00
2018-05-10T20:17:57.745Z,86.10
2018-05-10T20:20:25.224Z,85.30
2018-05-10T20:22:52.714Z,85.90
2018-05-10T20:25:21.028Z,85.80
2018-05-10T20:27:48.840Z,85.80
2018-05-10T20:30:16.300Z,86.30
2018-05-10T20:32:43.776Z,85.80
2018-05-10T20:35:11.254Z,86.50
2018-05-10T20:37:38.816Z,86.60
2018-05-10T20:40:06.263Z,87.60
2018-05-10T20:42:33.730Z,88.20
2018-05-10T20:45:01.253Z,88.50
2018-05-10T20:47:28.730Z,88.80
2018-05-10T20:49:56.193Z,88.70
2018-05-10T20:52:23.683Z,90.00
2018-05-10T20:54:51.933Z,90.00
2018-05-10T20:57:19.385Z,89.90
2018-05-10T20:59:46.933Z,90.00
2018-05-10T21:02:15.137Z,89.40
2018-05-10T21:04:42.596Z,89.40
2018-05-10T21:07:10.057Z,89.70
2018-05-10T21:09:37.668Z,90.30
2018-05-10T21:12:05.121Z,90.20
2018-05-10T21:14:32.576Z,90.00
2018-05-10T21:17:00.059Z,89.30
2018-05-10T21:19:27.552Z,90.10
2018-05-10T21:21:55.009Z,89.80
2018-05-10T21:24:22.480Z,90.10
2018-05-10T21:26:49.954Z,90.20
2018-05-10T21:29:17.401Z,90.60
2018-05-10T21:31:44.860Z,90.60
2018-05-10T21:34:12.308Z,90.90
2018-05-10T21:36:40.619Z,91.80
2018-05-10T21:39:08.849Z,91.70
2018-05-10T21:41:36.309Z,91.70
2018-05-10T21:44:03.789Z,91.80
2018-05-10T21:46:31.277Z,91.90
2018-05-10T21:48:58.738Z,92.00
2018-05-10T21:51:26.199Z,92.30
2018-05-10T21:53:53.693Z,92.20
2018-05-10T21:56:21.949Z,92.10
2018-05-10T21:58:49.420Z,92.10
2018-05-10T22:01:16.928Z,92.40
2018-05-10T22:03:45.244Z,92.90
2018-05-10T22:06:13.468Z,92.80
2018-05-10T22:08:40.944Z,92.80
2018-05-10T22:11:08.410Z,93.00
2018-05-10T22:13:35.985Z,93.10
2018-05-10T22:16:03.432Z,93.20
2018-05-10T22:18:30.890Z,93.30
2018-05-10T22:20:58.361Z,93.40
2018-05-10T22:23:25.845Z,93.70
2018-05-10T22:25:53.590Z,93.80
2018-05-10T22:28:22.821Z,94.00
2018-05-10T22:30:50.284Z,93.90
2018-05-10T22:33:17.788Z,93.90
2018-05-10T22:35:45.257Z,94.00
2018-05-10T22:38:12.713Z,94.10
2018-05-10T22:40:40.201Z,94.30
2018-05-10T22:43:07.644Z,94.20
2018-05-10T22:45:35.144Z,94.30
2018-05-10T22:48:02.618Z,94.50
2018-05-10T22:50:30.122Z,94.50
2018-05-10T22:52:58.378Z,94.50
2018-05-10T22:55:25.851Z,94.40
2018-05-10T22:57:55.069Z,94.50
2018-05-10T23:00:22.521Z,94.50
2018-05-10T23:02:50.088Z,94.50
2018-05-10T23:05:17.536Z,94.90
2018-05-10T23:07:45.028Z,94.70
2018-05-10T23:10:12.563Z,94.70
2018-05-10T23:12:40.769Z,94.70
2018-05-10T23:15:08.229Z,94.60
2018-05-10T23:17:35.678Z,95.10
2018-05-10T23:20:03.985Z,95.40
2018-05-10T23:22:31.489Z,95.30
2018-05-10T23:24:59.025Z,95.50
2018-05-10T23:27:26.466Z,95.60
2018-05-10T23:29:54.696Z,96.20
2018-05-10T23:32:22.196Z,96.20
2018-05-10T23:34:49.756Z,96.00
2018-05-10T23:37:17.203Z,96.10
2018-05-10T23:39:44.661Z,96.30
2018-05-10T23:42:12.140Z,96.50
2018-05-10T23:44:39.604Z,96.70
2018-05-10T23:47:07.060Z,97.00
2018-05-10T23:49:34.577Z,97.10
2018-05-10T23:52:02.037Z,96.90
2018-05-10T23:54:29.521Z,97.20
2018-05-10T23:56:57.001Z,97.30
2018-05-10T23:59:24.456Z,97.40
